sensor_id;sensor_type;location;lat;lon;timestamp;pressure;altitude;pressure_sealevel;temperature;humidity
24302;BME280;12421;49.732;20.078;2023-05-11T00:08:48;97034.52;;;3.76;76.95
24302;BME280;12421;49.732;20.078;2023-05-11T00:18:51;97029.10;;;3.84;77.02
24302;BME280;12421;49.732;20.078;2023-05-11T00:28:54;97025.52;;;3.86;77.30
24302;BME280;12421;49.732;20.078;2023-05-11T00:38:57;97019.65;;;3.79;77.07
24302;BME280;12421;49.732;20.078;2023-05-11T00:49:00;97024.31;;;3.68;77.37
24302;BME280;12421;49.732;20.078;2023-05-11T00:59:04;97019.50;;;3.50;77.51
24302;BME280;12421;49.732;20.078;2023-05-11T01:19:56;97024.64;;;3.19;77.54
24302;BME280;12421;49.732;20.078;2023-05-11T01:30:35;97025.23;;;3.05;77.94
24302;BME280;12421;49.732;20.078;2023-05-11T01:40:43;97033.61;;;2.82;77.74
24302;BME280;12421;49.732;20.078;2023-05-11T01:50:49;97039.05;;;2.60;78.14
24302;BME280;12421;49.732;20.078;2023-05-11T02:00:54;97045.40;;;2.34;78.89
24302;BME280;12421;49.732;20.078;2023-05-11T02:10:58;97041.42;;;2.27;79.53
24302;BME280;12421;49.732;20.078;2023-05-11T02:21:03;97049.94;;;2.20;79.48
24302;BME280;12421;49.732;20.078;2023-05-11T02:31:10;97049.39;;;2.19;79.35
24302;BME280;12421;49.732;20.078;2023-05-11T02:41:20;97050.60;;;2.12;79.39
24302;BME280;12421;49.732;20.078;2023-05-11T02:51:36;97044.42;;;2.00;79.23
24302;BME280;12421;49.732;20.078;2023-05-11T03:01:42;97049.61;;;1.92;79.51
24302;BME280;12421;49.732;20.078;2023-05-11T03:11:46;97050.81;;;1.79;79.06
24302;BME280;12421;49.732;20.078;2023-05-11T03:21:50;97053.32;;;1.75;79.62
24302;BME280;12421;49.732;20.078;2023-05-11T03:31:54;97057.45;;;1.74;79.66
24302;BME280;12421;49.732;20.078;2023-05-11T03:41:59;97059.79;;;1.84;80.00
24302;BME280;12421;49.732;20.078;2023-05-11T03:52:04;97057.88;;;1.91;80.27
24302;BME280;12421;49.732;20.078;2023-05-11T04:02:08;97057.51;;;2.11;80.93
24302;BME280;12421;49.732;20.078;2023-05-11T04:12:11;97059.89;;;2.39;81.40
24302;BME280;12421;49.732;20.078;2023-05-11T04:22:16;97056.80;;;2.72;81.84
24302;BME280;12421;49.732;20.078;2023-05-11T04:32:20;97052.78;;;3.12;81.88
24302;BME280;12421;49.732;20.078;2023-05-11T04:42:23;97051.61;;;3.70;81.87
24302;BME280;12421;49.732;20.078;2023-05-11T04:52:28;97054.44;;;4.37;81.39
24302;BME280;12421;49.732;20.078;2023-05-11T05:02:32;97052.41;;;5.04;80.95
24302;BME280;12421;49.732;20.078;2023-05-11T05:12:35;97055.38;;;5.65;80.52
24302;BME280;12421;49.732;20.078;2023-05-11T05:22:39;97052.34;;;6.32;80.60
24302;BME280;12421;49.732;20.078;2023-05-11T05:32:43;97047.23;;;7.12;79.74
24302;BME280;12421;49.732;20.078;2023-05-11T05:42:47;97041.17;;;7.91;78.23
24302;BME280;12421;49.732;20.078;2023-05-11T05:52:55;97041.39;;;8.35;77.08
24302;BME280;12421;49.732;20.078;2023-05-11T06:03:00;97040.73;;;9.02;75.91
24302;BME280;12421;49.732;20.078;2023-05-11T06:13:04;97036.27;;;10.71;72.92
24302;BME280;12421;49.732;20.078;2023-05-11T06:23:08;97033.05;;;12.90;67.74
24302;BME280;12421;49.732;20.078;2023-05-11T06:33:14;97030.48;;;15.01;63.67
24302;BME280;12421;49.732;20.078;2023-05-11T06:43:18;97027.75;;;16.64;60.06
24302;BME280;12421;49.732;20.078;2023-05-11T06:53:23;97024.19;;;18.20;56.06
24302;BME280;12421;49.732;20.078;2023-05-11T07:03:26;97012.73;;;19.56;53.60
24302;BME280;12421;49.732;20.078;2023-05-11T07:13:51;97007.72;;;20.73;51.11
24302;BME280;12421;49.732;20.078;2023-05-11T07:23:56;96996.04;;;21.48;48.05
24302;BME280;12421;49.732;20.078;2023-05-11T07:34:00;96990.52;;;22.07;43.35
24302;BME280;12421;49.732;20.078;2023-05-11T07:44:03;96984.45;;;22.48;37.75
24302;BME280;12421;49.732;20.078;2023-05-11T07:54:07;96989.94;;;22.11;34.07
24302;BME280;12421;49.732;20.078;2023-05-11T08:04:10;96981.73;;;22.07;33.59
24302;BME280;12421;49.732;20.078;2023-05-11T08:14:13;96984.33;;;21.46;31.92
24302;BME280;12421;49.732;20.078;2023-05-11T08:24:17;96982.69;;;20.27;32.32
24302;BME280;12421;49.732;20.078;2023-05-11T08:34:20;96976.55;;;19.29;33.42
24302;BME280;12421;49.732;20.078;2023-05-11T08:44:25;96972.83;;;18.97;33.31
24302;BME280;12421;49.732;20.078;2023-05-11T08:54:29;96970.34;;;18.93;34.17
24302;BME280;12421;49.732;20.078;2023-05-11T09:04:33;96971.55;;;19.02;34.78
24302;BME280;12421;49.732;20.078;2023-05-11T09:14:37;96965.57;;;19.04;34.90
24302;BME280;12421;49.732;20.078;2023-05-11T09:24:41;96970.02;;;18.96;35.22
24302;BME280;12421;49.732;20.078;2023-05-11T09:34:45;96965.52;;;18.97;35.59
24302;BME280;12421;49.732;20.078;2023-05-11T09:44:51;96965.16;;;19.30;36.21
24302;BME280;12421;49.732;20.078;2023-05-11T09:54:54;96953.73;;;19.70;36.02
24302;BME280;12421;49.732;20.078;2023-05-11T10:05:10;96948.11;;;19.94;35.16
24302;BME280;12421;49.732;20.078;2023-05-11T10:15:14;96939.14;;;20.36;34.63
24302;BME280;12421;49.732;20.078;2023-05-11T10:25:20;96929.05;;;20.49;34.36
24302;BME280;12421;49.732;20.078;2023-05-11T10:35:25;96926.02;;;20.62;33.32
24302;BME280;12421;49.732;20.078;2023-05-11T10:45:57;96918.83;;;20.57;33.28
24302;BME280;12421;49.732;20.078;2023-05-11T11:06:39;96895.60;;;20.00;32.85
24302;BME280;12421;49.732;20.078;2023-05-11T11:27:17;96888.13;;;20.50;33.08
24302;BME280;12421;49.732;20.078;2023-05-11T11:37:20;96878.79;;;20.48;33.19
24302;BME280;12421;49.732;20.078;2023-05-11T11:47:25;96880.49;;;20.77;34.04
24302;BME280;12421;49.732;20.078;2023-05-11T12:07:32;96890.65;;;20.60;33.02
24302;BME280;12421;49.732;20.078;2023-05-11T12:17:37;96881.34;;;20.40;33.98
24302;BME280;12421;49.732;20.078;2023-05-11T12:27:54;96878.92;;;20.45;33.61
24302;BME280;12421;49.732;20.078;2023-05-11T12:38:00;96868.33;;;20.00;34.32
24302;BME280;12421;49.732;20.078;2023-05-11T12:48:08;96856.19;;;20.01;34.44
24302;BME280;12421;49.732;20.078;2023-05-11T12:58:14;96850.02;;;19.85;34.16
24302;BME280;12421;49.732;20.078;2023-05-11T13:08:18;96842.14;;;20.18;35.55
24302;BME280;12421;49.732;20.078;2023-05-11T13:18:22;96836.70;;;20.13;33.78
24302;BME280;12421;49.732;20.078;2023-05-11T13:28:26;96832.54;;;20.21;34.42
24302;BME280;12421;49.732;20.078;2023-05-11T13:38:29;96820.39;;;20.53;34.77
24302;BME280;12421;49.732;20.078;2023-05-11T13:48:32;96814.27;;;20.71;34.46
24302;BME280;12421;49.732;20.078;2023-05-11T13:58:35;96822.52;;;20.56;34.61
24302;BME280;12421;49.732;20.078;2023-05-11T14:08:39;96813.38;;;20.26;34.76
24302;BME280;12421;49.732;20.078;2023-05-11T14:18:42;96804.17;;;19.86;34.58
24302;BME280;12421;49.732;20.078;2023-05-11T14:28:48;96801.37;;;19.85;34.56
24302;BME280;12421;49.732;20.078;2023-05-11T14:38:52;96799.27;;;19.74;34.53
24302;BME280;12421;49.732;20.078;2023-05-11T14:48:56;96810.16;;;19.55;34.61
24302;BME280;12421;49.732;20.078;2023-05-11T14:58:59;96801.37;;;19.34;34.95
24302;BME280;12421;49.732;20.078;2023-05-11T15:09:02;96798.31;;;19.11;34.48
24302;BME280;12421;49.732;20.078;2023-05-11T15:19:06;96796.96;;;19.06;34.85
24302;BME280;12421;49.732;20.078;2023-05-11T15:29:09;96801.21;;;19.18;34.56
24302;BME280;12421;49.732;20.078;2023-05-11T15:39:14;96806.83;;;19.12;33.35
24302;BME280;12421;49.732;20.078;2023-05-11T15:49:18;96806.23;;;19.10;33.46
24302;BME280;12421;49.732;20.078;2023-05-11T15:59:21;96809.90;;;18.99;33.49
24302;BME280;12421;49.732;20.078;2023-05-11T16:09:24;96816.19;;;18.94;33.38
24302;BME280;12421;49.732;20.078;2023-05-11T16:19:27;96812.25;;;18.76;33.73
24302;BME280;12421;49.732;20.078;2023-05-11T16:29:32;96819.27;;;18.50;33.43
24302;BME280;12421;49.732;20.078;2023-05-11T16:39:35;96823.27;;;18.23;34.01
24302;BME280;12421;49.732;20.078;2023-05-11T16:49:38;96832.90;;;17.97;34.28
24302;BME280;12421;49.732;20.078;2023-05-11T16:59:41;96834.73;;;17.74;35.58
24302;BME280;12421;49.732;20.078;2023-05-11T17:09:45;96832.52;;;17.50;35.83
24302;BME280;12421;49.732;20.078;2023-05-11T17:19:48;96838.82;;;17.20;37.24
24302;BME280;12421;49.732;20.078;2023-05-11T17:29:51;96851.45;;;16.77;37.86
24302;BME280;12421;49.732;20.078;2023-05-11T17:40:21;96863.21;;;16.29;40.17
24302;BME280;12421;49.732;20.078;2023-05-11T17:50:25;96867.47;;;15.77;40.72
24302;BME280;12421;49.732;20.078;2023-05-11T18:00:28;96872.67;;;15.17;43.18
24302;BME280;12421;49.732;20.078;2023-05-11T18:10:34;96885.89;;;14.50;46.68
24302;BME280;12421;49.732;20.078;2023-05-11T18:20:37;96905.65;;;13.58;50.08
24302;BME280;12421;49.732;20.078;2023-05-11T18:31:05;96916.29;;;12.82;51.63
24302;BME280;12421;49.732;20.078;2023-05-11T18:41:09;96933.21;;;12.14;53.84
24302;BME280;12421;49.732;20.078;2023-05-11T18:51:12;96936.19;;;11.46;55.05
24302;BME280;12421;49.732;20.078;2023-05-11T19:01:20;96951.92;;;10.84;56.80
24302;BME280;12421;49.732;20.078;2023-05-11T19:11:34;96958.90;;;10.18;58.75
24302;BME280;12421;49.732;20.078;2023-05-11T19:21:38;96968.09;;;9.64;60.72
24302;BME280;12421;49.732;20.078;2023-05-11T19:31:43;96972.95;;;9.11;62.25
24302;BME280;12421;49.732;20.078;2023-05-11T19:41:49;96973.84;;;8.57;63.36
24302;BME280;12421;49.732;20.078;2023-05-11T19:51:53;96977.55;;;8.17;64.33
24302;BME280;12421;49.732;20.078;2023-05-11T20:02:02;96983.31;;;7.86;65.15
24302;BME280;12421;49.732;20.078;2023-05-11T20:12:31;96986.60;;;7.51;66.17
24302;BME280;12421;49.732;20.078;2023-05-11T20:22:35;96992.48;;;7.25;67.32
24302;BME280;12421;49.732;20.078;2023-05-11T20:33:04;96992.71;;;6.98;67.88
24302;BME280;12421;49.732;20.078;2023-05-11T20:43:10;96995.23;;;6.76;69.05
24302;BME280;12421;49.732;20.078;2023-05-11T20:53:16;96995.50;;;6.58;69.97
24302;BME280;12421;49.732;20.078;2023-05-11T21:03:19;96995.09;;;6.47;70.53
24302;BME280;12421;49.732;20.078;2023-05-11T21:13:23;96990.48;;;6.36;71.31
24302;BME280;12421;49.732;20.078;2023-05-11T21:23:27;96990.58;;;6.26;72.01
24302;BME280;12421;49.732;20.078;2023-05-11T21:33:31;96995.41;;;6.20;72.22
24302;BME280;12421;49.732;20.078;2023-05-11T21:44:00;96992.95;;;6.13;72.19
24302;BME280;12421;49.732;20.078;2023-05-11T21:54:03;96991.67;;;6.06;72.65
24302;BME280;12421;49.732;20.078;2023-05-11T22:04:06;96991.44;;;6.00;72.89
24302;BME280;12421;49.732;20.078;2023-05-11T22:14:12;96994.21;;;5.97;72.97
24302;BME280;12421;49.732;20.078;2023-05-11T22:24:16;97002.02;;;5.95;73.26
24302;BME280;12421;49.732;20.078;2023-05-11T22:34:19;97009.20;;;5.99;73.48
24302;BME280;12421;49.732;20.078;2023-05-11T22:44:26;97006.95;;;6.00;73.21
24302;BME280;12421;49.732;20.078;2023-05-11T22:54:30;97012.83;;;5.94;73.23
24302;BME280;12421;49.732;20.078;2023-05-11T23:04:33;97013.21;;;5.81;73.22
24302;BME280;12421;49.732;20.078;2023-05-11T23:14:36;97013.38;;;5.44;73.62
24302;BME280;12421;49.732;20.078;2023-05-11T23:25:05;97013.05;;;5.15;74.45
24302;BME280;12421;49.732;20.078;2023-05-11T23:35:08;97011.66;;;4.85;74.97
24302;BME280;12421;49.732;20.078;2023-05-11T23:45:11;97014.00;;;4.65;75.70
24302;BME280;12421;49.732;20.078;2023-05-11T23:55:40;97005.04;;;4.46;75.88
